createdAt,value
2018-02-17T00:01:23.633Z,3.93
2018-02-17T00:03:51.604Z,3.90
2018-02-17T00:06:19.574Z,4.20
2018-02-17T00:08:47.448Z,3.67
2018-02-17T00:11:15.421Z,4.13
2018-02-17T00:13:43.286Z,4.23
2018-02-17T00:16:11.258Z,3.77
2018-02-17T00:18:39.125Z,4.27
2018-02-17T00:21:06.897Z,5.10
2018-02-17T00:23:34.770Z,3.47
2018-02-17T00:26:02.628Z,4.27
2018-02-17T00:28:30.396Z,4.23
2018-02-17T00:30:58.265Z,4.47
2018-02-17T00:33:26.138Z,3.87
2018-02-17T00:35:54.004Z,3.90
2018-02-17T00:38:21.873Z,4.40
2018-02-17T00:40:49.746Z,4.87
2018-02-17T00:43:17.716Z,4.13
2018-02-17T00:45:45.582Z,4.27
2018-02-17T00:48:13.553Z,4.23
2018-02-17T00:50:41.422Z,4.87
2018-02-17T00:53:09.767Z,4.43
2018-02-17T00:55:38.206Z,4.50
2018-02-17T00:58:06.154Z,4.80
2018-02-17T01:00:34.026Z,4.80
2018-02-17T01:03:01.893Z,4.40
2018-02-17T01:05:29.863Z,4.23
2018-02-17T01:07:57.733Z,4.47
2018-02-17T01:10:26.523Z,4.20
2018-02-17T01:12:54.389Z,4.50
2018-02-17T01:15:22.260Z,4.57
2018-02-17T01:17:50.130Z,4.10
2018-02-17T01:20:18.097Z,4.47
2018-02-17T01:22:45.966Z,4.63
2018-02-17T01:25:14.141Z,3.87
2018-02-17T01:27:42.114Z,4.13
2018-02-17T01:30:10.190Z,4.77
2018-02-17T01:32:38.158Z,4.67
2018-02-17T01:35:06.336Z,4.43
2018-02-17T01:37:34.203Z,4.23
2018-02-17T01:40:02.176Z,4.30
2018-02-17T01:42:29.939Z,4.70
2018-02-17T01:44:58.258Z,4.20
2018-02-17T01:47:26.188Z,3.87
2018-02-17T01:49:53.860Z,4.20
2018-02-17T01:52:21.715Z,4.47
2018-02-17T01:54:49.592Z,3.97
2018-02-17T01:57:17.557Z,3.67
2018-02-17T01:59:45.235Z,3.97
2018-02-17T02:02:14.412Z,4.73
2018-02-17T02:04:42.196Z,5.37
2018-02-17T02:07:11.070Z,5.07
2018-02-17T02:09:39.041Z,4.93
2018-02-17T02:12:06.911Z,4.97
2018-02-17T02:14:34.879Z,5.07
2018-02-17T02:17:02.853Z,5.67
2018-02-17T02:19:30.924Z,4.67
2018-02-17T02:21:58.789Z,5.50
2018-02-17T02:24:26.664Z,5.70
2018-02-17T02:26:54.527Z,6.83
2018-02-17T02:29:22.189Z,5.80
2018-02-17T02:31:50.362Z,6.17
2018-02-17T02:34:18.229Z,6.77
2018-02-17T02:36:46.097Z,6.33
2018-02-17T02:39:13.862Z,7.03
2018-02-17T02:41:41.731Z,7.30
2018-02-17T02:44:09.703Z,6.70
2018-02-17T02:46:37.568Z,6.13
2018-02-17T02:49:05.746Z,6.37
2018-02-17T02:51:33.819Z,6.57
2018-02-17T02:54:01.685Z,5.87
2018-02-17T02:56:29.351Z,5.60
2018-02-17T02:58:57.219Z,6.53
2018-02-17T03:01:25.183Z,6.40
2018-02-17T03:03:53.155Z,4.47
2018-02-17T03:06:21.129Z,6.63
2018-02-17T03:08:49.093Z,6.87
2018-02-17T03:11:16.961Z,8.60
2018-02-17T03:13:44.829Z,6.43
2018-02-17T03:16:13.005Z,6.90
2018-02-17T03:18:40.972Z,6.37
2018-02-17T03:21:08.940Z,5.40
2018-02-17T03:23:37.014Z,6.73
2018-02-17T03:26:04.880Z,6.03
2018-02-17T03:28:35.418Z,5.70
2018-02-17T03:31:03.282Z,7.20
2018-02-17T03:33:31.254Z,6.20
2018-02-17T03:35:59.022Z,5.93
2018-02-17T03:38:26.807Z,6.53
2018-02-17T03:40:54.551Z,5.40
2018-02-17T03:43:22.211Z,6.77
2018-02-17T03:45:50.075Z,5.50
2018-02-17T03:48:18.049Z,5.63
2018-02-17T03:50:45.918Z,5.70
2018-02-17T03:53:13.778Z,4.63
2018-02-17T03:55:41.647Z,6.07
2018-02-17T03:58:09.515Z,5.67
2018-02-17T04:00:37.376Z,6.53
2018-02-17T04:03:05.243Z,7.37
2018-02-17T04:05:33.012Z,5.70
2018-02-17T04:08:00.671Z,5.60
2018-02-17T04:10:28.543Z,7.20
2018-02-17T04:12:56.409Z,6.33
2018-02-17T04:15:24.375Z,7.77
2018-02-17T04:17:52.244Z,6.47
2018-02-17T04:20:20.115Z,7.47
2018-02-17T04:22:47.981Z,6.53
2018-02-17T04:25:15.687Z,6.87
2018-02-17T04:27:43.713Z,6.47
2018-02-17T04:30:12.394Z,6.17
2018-02-17T04:32:40.266Z,6.33
2018-02-17T04:35:08.336Z,7.30
2018-02-17T04:37:36.511Z,7.13
2018-02-17T04:40:19.863Z,6.23
2018-02-17T04:43:06.549Z,6.50
2018-02-17T04:45:34.851Z,6.53
2018-02-17T04:48:09.143Z,6.90
2018-02-17T04:50:38.250Z,5.40
2018-02-17T04:53:21.266Z,5.47
2018-02-17T04:56:04.793Z,5.67
2018-02-17T04:58:32.969Z,5.37
2018-02-17T05:01:03.809Z,7.23
2018-02-17T05:03:31.674Z,7.37
2018-02-17T05:06:05.624Z,7.30
2018-02-17T05:08:50.138Z,6.27
2018-02-17T05:11:18.109Z,8.20
2018-02-17T05:13:46.081Z,6.90
2018-02-17T05:16:17.432Z,5.97
2018-02-17T05:18:50.722Z,5.87
2018-02-17T05:21:21.250Z,10.80
2018-02-17T05:23:55.471Z,6.37
2018-02-17T05:26:25.896Z,6.67
2018-02-17T05:28:54.580Z,6.70
2018-02-17T05:31:23.059Z,5.87
2018-02-17T05:33:56.563Z,6.97
2018-02-17T05:36:40.091Z,7.03
2018-02-17T05:39:07.959Z,8.43
2018-02-17T05:41:40.843Z,9.33
2018-02-17T05:44:18.646Z,7.53
2018-02-17T05:47:01.975Z,10.67
2018-02-17T05:49:31.480Z,8.73
2018-02-17T05:51:58.949Z,8.40
2018-02-17T05:54:26.749Z,9.40
2018-02-17T05:56:54.214Z,7.80
2018-02-17T05:59:21.670Z,7.83
2018-02-17T06:01:49.125Z,7.97
2018-02-17T06:04:27.947Z,8.77
2018-02-17T06:06:55.424Z,8.47
2018-02-17T06:09:23.646Z,8.20
2018-02-17T06:11:51.171Z,6.00
2018-02-17T06:14:18.609Z,6.67
2018-02-17T06:16:46.855Z,7.13
2018-02-17T06:19:14.326Z,7.03
2018-02-17T06:21:41.795Z,7.50
2018-02-17T06:24:10.027Z,7.93
2018-02-17T06:26:37.492Z,6.57
2018-02-17T06:29:12.553Z,10.13
2018-02-17T06:31:40.026Z,8.53
2018-02-17T06:34:08.259Z,7.97
2018-02-17T06:36:35.716Z,8.57
2018-02-17T06:39:03.976Z,8.40
2018-02-17T06:41:31.841Z,9.03
2018-02-17T06:43:59.310Z,8.73
2018-02-17T06:46:38.092Z,8.03
2018-02-17T06:49:05.573Z,6.93
2018-02-17T06:51:33.035Z,7.00
2018-02-17T06:54:00.507Z,8.63
2018-02-17T06:56:28.732Z,8.50
2018-02-17T06:58:56.209Z,7.50
2018-02-17T07:01:23.665Z,7.17
2018-02-17T07:03:51.137Z,6.30
2018-02-17T07:06:18.594Z,6.53
2018-02-17T07:08:46.068Z,6.80
2018-02-17T07:11:13.517Z,8.30
2018-02-17T07:13:41.053Z,6.63
2018-02-17T07:16:08.591Z,6.47
2018-02-17T07:18:36.151Z,6.97
2018-02-17T07:21:03.626Z,6.70
2018-02-17T07:23:31.867Z,8.20
2018-02-17T07:26:09.682Z,8.30
2018-02-17T07:28:37.148Z,8.77
2018-02-17T07:31:05.378Z,7.90
2018-02-17T07:33:32.837Z,6.33
2018-02-17T07:36:00.305Z,6.97
2018-02-17T07:38:28.525Z,6.07
2018-02-17T07:40:56.736Z,6.80
2018-02-17T07:43:24.204Z,6.97
2018-02-17T07:45:51.665Z,8.43
2018-02-17T07:48:19.142Z,8.23
2018-02-17T07:50:46.667Z,8.43
2018-02-17T07:53:14.159Z,7.30
2018-02-17T07:55:41.696Z,6.10
2018-02-17T07:58:09.156Z,7.37
2018-02-17T08:00:37.542Z,6.40
2018-02-17T08:03:05.013Z,7.37
2018-02-17T08:05:32.486Z,7.20
2018-02-17T08:07:59.954Z,7.03
2018-02-17T08:10:28.190Z,8.43
2018-02-17T08:12:55.656Z,7.73
2018-02-17T08:15:23.130Z,7.07
2018-02-17T08:17:51.056Z,7.00
2018-02-17T08:20:19.027Z,7.20
2018-02-17T08:22:46.483Z,8.03
2018-02-17T08:25:13.980Z,7.60
2018-02-17T08:27:41.441Z,7.83
2018-02-17T08:30:08.918Z,8.20
2018-02-17T08:32:37.159Z,9.07
2018-02-17T08:35:04.610Z,8.90
2018-02-17T08:37:32.085Z,10.30
2018-02-17T08:39:59.559Z,9.10
2018-02-17T08:42:27.007Z,9.10
2018-02-17T08:44:54.470Z,9.23
2018-02-17T08:47:21.940Z,8.03
2018-02-17T08:49:50.161Z,8.63
2018-02-17T08:52:17.624Z,9.00
2018-02-17T08:54:45.124Z,8.00
2018-02-17T08:57:12.585Z,8.43
2018-02-17T08:59:40.084Z,10.03
2018-02-17T09:04:57.949Z,8.20
2018-02-17T09:07:25.406Z,9.17
2018-02-17T09:09:52.883Z,7.97
2018-02-17T09:12:20.374Z,8.40
2018-02-17T09:14:48.595Z,8.20
2018-02-17T09:17:16.070Z,7.83
2018-02-17T09:19:44.298Z,8.17
2018-02-17T09:22:12.587Z,8.57
2018-02-17T09:24:40.095Z,8.50
2018-02-17T09:27:08.469Z,8.50
2018-02-17T09:29:35.967Z,7.43
2018-02-17T09:34:59.949Z,8.67
2018-02-17T09:37:30.335Z,7.73
2018-02-17T09:40:01.369Z,8.33
2018-02-17T09:42:29.018Z,8.83
2018-02-17T09:45:17.852Z,7.37
2018-02-17T09:50:39.299Z,7.33
2018-02-17T09:53:06.772Z,7.53
2018-02-17T09:55:34.244Z,6.77
2018-02-17T09:58:25.498Z,7.27
2018-02-17T10:00:53.040Z,7.00
2018-02-17T10:03:20.566Z,6.80
2018-02-17T10:05:48.074Z,6.83
2018-02-17T10:08:15.546Z,6.67
2018-02-17T10:10:43.737Z,6.47
2018-02-17T10:13:11.262Z,6.80
2018-02-17T10:15:38.873Z,5.77
2018-02-17T10:18:06.433Z,7.13
2018-02-17T10:20:34.141Z,6.87
2018-02-17T10:23:01.635Z,5.60
2018-02-17T10:25:29.912Z,6.50
2018-02-17T10:27:58.157Z,6.47
2018-02-17T10:30:26.207Z,6.50
2018-02-17T10:32:53.805Z,6.53
2018-02-17T10:35:21.287Z,5.67
2018-02-17T10:37:49.519Z,6.20
2018-02-17T10:40:17.002Z,5.40
2018-02-17T10:42:44.462Z,5.77
2018-02-17T10:45:12.728Z,5.67
2018-02-17T10:47:40.427Z,5.50
2018-02-17T10:50:08.128Z,5.47
2018-02-17T10:52:36.082Z,5.60
2018-02-17T10:58:05.054Z,5.00
2018-02-17T11:00:33.319Z,5.50
2018-02-17T11:03:00.783Z,5.73
2018-02-17T11:05:28.247Z,5.83
2018-02-17T11:07:56.491Z,5.53
2018-02-17T11:10:23.947Z,5.03
2018-02-17T11:12:51.420Z,6.00
2018-02-17T11:15:18.907Z,4.83
2018-02-17T11:17:48.031Z,5.70
2018-02-17T11:23:06.208Z,4.70
2018-02-17T11:25:34.457Z,5.97
2018-02-17T11:28:01.966Z,5.20
2018-02-17T11:30:29.452Z,5.40
2018-02-17T11:32:57.682Z,5.20
2018-02-17T11:35:25.152Z,5.00
2018-02-17T11:41:04.225Z,5.37
2018-02-17T11:43:31.701Z,5.50
2018-02-17T11:45:59.961Z,5.23
2018-02-17T11:48:27.449Z,5.63
2018-02-17T11:50:55.685Z,4.47
2018-02-17T11:53:23.152Z,5.27
2018-02-17T11:55:50.639Z,5.00
2018-02-17T11:58:18.108Z,4.27
2018-02-17T12:00:45.609Z,4.60
2018-02-17T12:03:13.097Z,3.67
2018-02-17T12:05:41.335Z,3.60
2018-02-17T12:08:08.798Z,3.73
2018-02-17T12:10:36.261Z,4.13
2018-02-17T12:13:03.744Z,3.40
2018-02-17T12:15:31.966Z,3.30
2018-02-17T12:17:59.429Z,3.33
2018-02-17T12:20:26.882Z,3.30
2018-02-17T12:22:54.355Z,3.57
2018-02-17T12:25:21.814Z,3.40
2018-02-17T12:27:49.302Z,3.37
2018-02-17T12:30:17.317Z,3.60
2018-02-17T12:32:44.790Z,3.63
2018-02-17T12:35:24.983Z,3.27
2018-02-17T12:37:52.446Z,3.03
2018-02-17T12:40:20.670Z,4.23
2018-02-17T12:42:48.133Z,3.97
2018-02-17T12:45:15.601Z,4.07
2018-02-17T12:47:43.066Z,3.63
2018-02-17T12:50:10.511Z,3.87
2018-02-17T12:52:37.987Z,4.33
2018-02-17T12:55:05.442Z,3.83
2018-02-17T12:57:32.937Z,3.30
2018-02-17T13:00:01.150Z,3.40
2018-02-17T13:02:28.618Z,3.60
2018-02-17T13:04:56.094Z,3.73
2018-02-17T13:07:23.566Z,3.97
2018-02-17T13:12:56.558Z,3.43
2018-02-17T13:15:24.026Z,4.43
2018-02-17T13:17:51.486Z,3.23
2018-02-17T13:20:18.954Z,3.20
2018-02-17T13:22:46.416Z,2.90
2018-02-17T13:25:14.642Z,3.00
2018-02-17T13:27:42.117Z,2.70
2018-02-17T13:33:25.911Z,4.03
2018-02-17T13:35:53.366Z,3.90
2018-02-17T13:38:20.822Z,3.87
2018-02-17T13:41:06.363Z,3.43
2018-02-17T13:43:33.814Z,2.90
2018-02-17T13:46:01.275Z,2.80
2018-02-17T13:48:28.739Z,3.40
2018-02-17T13:50:56.189Z,4.23
2018-02-17T13:53:24.411Z,3.00
2018-02-17T13:55:51.862Z,3.87
2018-02-17T13:58:19.315Z,3.30
2018-02-17T14:00:46.782Z,2.60
2018-02-17T14:03:14.249Z,2.27
2018-02-17T14:05:42.482Z,2.67
2018-02-17T14:08:09.930Z,2.53
2018-02-17T14:10:38.309Z,2.83
2018-02-17T14:13:05.752Z,2.33
2018-02-17T14:15:33.216Z,2.57
2018-02-17T14:18:01.496Z,3.17
2018-02-17T14:20:28.954Z,2.53
2018-02-17T14:22:57.216Z,2.23
2018-02-17T14:25:24.667Z,2.47
2018-02-17T14:27:52.120Z,2.20
2018-02-17T14:30:20.350Z,1.90
2018-02-17T14:32:47.810Z,2.17
2018-02-17T14:35:15.258Z,2.33
2018-02-17T14:37:42.711Z,1.77
2018-02-17T14:40:10.169Z,2.00
2018-02-17T14:42:37.632Z,1.73
2018-02-17T14:45:05.101Z,1.80
2018-02-17T14:47:32.549Z,2.17
2018-02-17T14:50:00.010Z,1.80
2018-02-17T14:52:27.461Z,1.87
2018-02-17T14:54:54.926Z,1.73
2018-02-17T14:57:22.375Z,1.27
2018-02-17T14:59:49.829Z,1.63
2018-02-17T15:02:17.298Z,1.13
2018-02-17T15:04:44.758Z,2.00
2018-02-17T15:07:12.237Z,1.50
2018-02-17T15:09:39.678Z,1.73
2018-02-17T15:12:07.143Z,1.80
2018-02-17T15:14:34.598Z,2.37
2018-02-17T15:17:02.070Z,2.73
2018-02-17T15:19:29.531Z,2.60
2018-02-17T15:21:56.998Z,2.53
2018-02-17T15:24:25.227Z,2.93
2018-02-17T15:26:59.072Z,3.37
2018-02-17T15:29:26.533Z,8.83
2018-02-17T15:31:54.759Z,10.20
2018-02-17T15:34:22.211Z,8.53
2018-02-17T15:37:07.818Z,5.40
2018-02-17T15:39:35.279Z,4.27
2018-02-17T15:42:05.838Z,3.73
2018-02-17T15:44:34.065Z,3.40
2018-02-17T15:47:05.577Z,3.93
2018-02-17T15:49:33.803Z,4.43
2018-02-17T15:52:01.252Z,4.40
2018-02-17T15:54:29.038Z,4.07
2018-02-17T15:56:56.511Z,5.07
2018-02-17T15:59:24.010Z,4.67
2018-02-17T16:01:51.436Z,4.33
2018-02-17T16:04:18.896Z,3.60
2018-02-17T16:06:47.132Z,3.13
2018-02-17T16:09:20.752Z,3.43
2018-02-17T16:11:48.212Z,4.03
2018-02-17T16:14:15.663Z,3.77
2018-02-17T16:16:43.136Z,3.33
2018-02-17T16:19:10.593Z,3.30
2018-02-17T16:21:38.045Z,3.87
2018-02-17T16:24:05.502Z,3.57
2018-02-17T16:26:33.085Z,3.40
2018-02-17T16:29:01.833Z,3.27
2018-02-17T16:31:48.321Z,3.93
2018-02-17T16:34:16.222Z,3.47
2018-02-17T16:36:44.363Z,3.53
2018-02-17T16:39:12.938Z,3.20
2018-02-17T16:41:41.121Z,3.27
2018-02-17T16:44:08.885Z,3.07
2018-02-17T16:46:37.299Z,4.10
2018-02-17T16:49:04.986Z,3.53
2018-02-17T16:51:32.883Z,3.50
2018-02-17T16:54:25.012Z,3.70
2018-02-17T16:56:52.539Z,3.60
2018-02-17T16:59:20.007Z,23.80
2018-02-17T17:01:48.254Z,15.33
2018-02-17T17:04:15.730Z,10.57
2018-02-17T17:06:43.209Z,9.43
2018-02-17T17:09:11.456Z,9.40
2018-02-17T17:11:38.930Z,8.40
2018-02-17T17:23:05.196Z,4.07
2018-02-17T17:25:32.653Z,4.37
2018-02-17T17:28:00.119Z,4.70
2018-02-17T17:30:27.577Z,4.27
2018-02-17T17:32:55.058Z,4.13
2018-02-17T17:35:23.294Z,4.43
2018-02-17T17:37:50.775Z,3.60
2018-02-17T17:40:18.231Z,3.83
2018-02-17T17:42:45.687Z,3.50
2018-02-17T17:45:13.155Z,3.50
2018-02-17T17:47:40.625Z,3.33
2018-02-17T17:50:08.847Z,4.20
2018-02-17T17:52:36.308Z,4.10
2018-02-17T17:55:03.774Z,3.53
2018-02-17T17:57:31.236Z,4.03
2018-02-17T17:59:59.422Z,5.00
2018-02-17T18:02:26.892Z,5.97
2018-02-17T18:04:54.385Z,5.00
2018-02-17T18:07:21.845Z,5.53
2018-02-17T18:09:49.333Z,4.70
2018-02-17T18:12:16.795Z,4.60
2018-02-17T18:14:44.277Z,5.47
2018-02-17T18:17:11.746Z,4.13
2018-02-17T18:19:39.223Z,4.40
2018-02-17T18:22:07.450Z,5.67
2018-02-17T18:24:34.925Z,4.97
2018-02-17T18:27:02.399Z,7.00
2018-02-17T18:29:29.866Z,6.87
2018-02-17T18:31:58.122Z,5.97
2018-02-17T18:34:25.607Z,6.20
2018-02-17T18:36:53.832Z,5.33
2018-02-17T18:39:21.303Z,5.43
2018-02-17T18:41:48.759Z,5.83
2018-02-17T18:44:16.221Z,5.30
2018-02-17T18:46:43.687Z,5.43
2018-02-17T18:49:11.172Z,5.70
2018-02-17T18:51:40.111Z,5.33
2018-02-17T18:54:07.611Z,5.33
2018-02-17T18:56:35.066Z,4.50
2018-02-17T18:59:03.298Z,4.03
2018-02-17T19:01:30.782Z,3.50
2018-02-17T19:03:58.289Z,3.30
2018-02-17T19:06:25.829Z,3.40
2018-02-17T19:08:54.067Z,4.47
2018-02-17T19:11:21.538Z,4.90
2018-02-17T19:13:48.993Z,3.97
2018-02-17T19:16:17.972Z,3.67
2018-02-17T19:18:45.429Z,3.60
2018-02-17T19:21:12.894Z,4.40
2018-02-17T19:23:40.373Z,4.03
2018-02-17T19:26:07.863Z,5.63
2018-02-17T19:28:35.346Z,6.87
2018-02-17T19:31:02.844Z,7.03
2018-02-17T19:33:30.307Z,6.80
2018-02-17T19:35:57.791Z,6.07
2018-02-17T19:38:25.274Z,5.67
2018-02-17T19:40:52.744Z,6.17
2018-02-17T19:43:20.229Z,5.60
2018-02-17T19:45:47.703Z,5.60
2018-02-17T19:48:15.181Z,4.13
2018-02-17T19:50:43.445Z,4.37
2018-02-17T19:53:11.688Z,3.50
2018-02-17T19:55:39.175Z,3.63
2018-02-17T20:00:59.938Z,3.03
2018-02-17T20:03:27.410Z,4.80
2018-02-17T20:05:54.887Z,5.00
2018-02-17T20:08:22.359Z,4.60
2018-02-17T20:10:49.830Z,4.13
2018-02-17T20:13:18.075Z,4.13
2018-02-17T20:15:45.531Z,3.73
2018-02-17T20:18:12.995Z,3.27
2018-02-17T20:20:40.455Z,2.47
2018-02-17T20:23:08.758Z,4.70
2018-02-17T20:25:36.218Z,4.60
2018-02-17T20:28:03.695Z,3.63
2018-02-17T20:30:31.158Z,3.20
2018-02-17T20:32:58.629Z,2.70
2018-02-17T20:35:26.094Z,3.17
2018-02-17T20:37:53.613Z,3.00
2018-02-17T20:40:21.061Z,3.20
2018-02-17T20:42:49.300Z,2.87
2018-02-17T20:45:16.758Z,2.97
2018-02-17T20:47:44.249Z,3.00
2018-02-17T20:50:11.718Z,3.80
2018-02-17T20:52:39.983Z,6.23
2018-02-17T20:55:07.463Z,5.63
2018-02-17T20:57:35.719Z,4.97
2018-02-17T21:00:03.195Z,4.10
2018-02-17T21:02:30.677Z,3.53
2018-02-17T21:04:58.151Z,3.90
2018-02-17T21:07:25.626Z,3.73
2018-02-17T21:09:53.172Z,3.90
2018-02-17T21:12:20.610Z,3.53
2018-02-17T21:14:48.081Z,6.20
2018-02-17T21:17:15.543Z,5.30
2018-02-17T21:19:43.007Z,4.93
2018-02-17T21:22:10.479Z,3.90
2018-02-17T21:24:37.942Z,3.93
2018-02-17T21:27:05.416Z,4.37
2018-02-17T21:29:32.991Z,4.43
2018-02-17T21:32:00.543Z,4.53
2018-02-17T21:34:28.837Z,5.30
2018-02-17T21:36:57.059Z,5.00
2018-02-17T21:39:24.536Z,4.40
2018-02-17T21:41:51.993Z,4.47
2018-02-17T21:44:19.451Z,4.77
2018-02-17T21:46:46.923Z,5.37
2018-02-17T21:49:14.391Z,4.70
2018-02-17T21:51:42.602Z,5.00
2018-02-17T21:54:10.072Z,5.10
2018-02-17T21:56:37.551Z,4.80
2018-02-17T21:59:05.030Z,5.60
2018-02-17T22:01:32.483Z,5.10
2018-02-17T22:03:59.962Z,5.03
2018-02-17T22:06:28.188Z,4.90
2018-02-17T22:08:55.647Z,6.20
2018-02-17T22:11:23.119Z,5.37
2018-02-17T22:13:50.596Z,5.73
2018-02-17T22:16:18.059Z,5.57
2018-02-17T22:18:46.307Z,5.63
2018-02-17T22:21:13.786Z,6.63
2018-02-17T22:23:42.025Z,8.32
2018-02-17T22:26:09.495Z,7.50
2018-02-17T22:28:36.959Z,6.47
2018-02-17T22:31:04.441Z,6.57
2018-02-17T22:33:32.670Z,5.53
2018-02-17T22:36:00.155Z,5.93
2018-02-17T22:38:27.619Z,5.43
2018-02-17T22:40:55.091Z,5.20
2018-02-17T22:43:23.320Z,5.60
2018-02-17T22:45:50.807Z,4.27
2018-02-17T22:48:18.261Z,5.40
2018-02-17T22:50:45.733Z,6.37
2018-02-17T22:53:13.191Z,5.30
2018-02-17T22:55:40.674Z,5.55
2018-02-17T22:58:08.919Z,5.97
2018-02-17T23:00:39.192Z,6.20
2018-02-17T23:03:06.659Z,7.37
2018-02-17T23:05:34.147Z,5.57
2018-02-17T23:08:01.614Z,4.83
2018-02-17T23:10:29.066Z,4.90
2018-02-17T23:12:56.546Z,5.27
2018-02-17T23:15:24.006Z,5.00
2018-02-17T23:17:52.242Z,4.27
2018-02-17T23:20:19.707Z,4.60
2018-02-17T23:22:47.176Z,4.97
2018-02-17T23:25:14.667Z,5.43
2018-02-17T23:27:42.115Z,4.87
2018-02-17T23:30:10.354Z,5.13
2018-02-17T23:32:37.818Z,4.63
2018-02-17T23:35:05.286Z,4.47
2018-02-17T23:37:32.791Z,4.43
2018-02-17T23:40:00.263Z,4.33
2018-02-17T23:42:27.739Z,4.93
2018-02-17T23:44:55.198Z,5.33
2018-02-17T23:47:22.673Z,4.70
2018-02-17T23:49:50.131Z,4.77
2018-02-17T23:52:17.620Z,4.25
2018-02-17T23:54:45.852Z,4.23
2018-02-17T23:57:13.355Z,3.87
2018-02-17T23:59:41.577Z,5.07
